Accueil
METAR-TAF:

METAR-TAF

Aéroports :

Midway, États-Unis

latitude: 28-13N, longitude: 177-22W, altitude: 4 m

Observation

Le bulletin a été fait il y a 1 heure et 7 minutes, à 21:56 UTC
Vent 5 kt de sud/sud-ouest
Température 27°C
Humidité 70%
Pression 1021 hPa
Visibilité: 16.1 km
Ciel clair

METAR: PMDY 232156Z AUTO 21005KT 10SM CLR 27/21 A3014 RMK AO2 SLP205 T02670211

Heure: 13:03 (23:03 UTC)

Prévision

Le bulletin a été fait il y a 5 heures et 19 minutes, à 17:44 UTC
Prévision valable du 23 à 18 UTC au 24 à 18 UTC
Vent 5 kt de ouest/sud-ouest
Visibilité: 10 km
Nuages épars à une hauteur de 2500 ft
Nuages épars à une hauteur de 4000 ft
A partir de 24 à 0600 UTC
Vent 10 kt de nord-ouest
Visibilité: 10 km
Nuages épars à une hauteur de 1500 ft
Nuages fragmentés à une hauteur de 3500 ft
averses à proximité

TAF: PMDY 231744Z 2318/2418 25005KT P6SM SCT025 SCT040 FM240600 32010KT P6SM VCSH SCT015 BKN035

Observations et prévisions météorologiques de plus de 4000 aéroports (messages METAR et TAF).

Les stations disponibles sont représentées par des disques jaunes et rouges sur la carte.

Passer la souris dessus pour voir le nom de la station.

Cliquer dessus pour voir les observations et prévisions météorologiques.

Pour changer de carte: cliquez sur les boutons verts avec une croix noire pour zoomer, sur le bouton vert avec un tiret pour effectuer un zoom arrière, ou sur les flèches vertes pour les cartes adjacentes.


METAR-TAF: